Time;durP1;ratioP1;P1;durP2;ratioP2;P2;SDS_P1;SDS_P2;PMS_P1;PMS_P2;Temp;Humidity;BMP_temperature;BMP_pressure;BME280_temperature;BME280_humidity;BME280_pressure;Samples;Min_cycle;Max_cycle;Signal;HPM_P1;HPM_P2
2023/12/17 00:01:09;;;;;;;20.52;18.27;;;;;;;;;;5260392;28;20480;-79
2023/12/17 00:03:40;;;;;;;20.40;18.30;;;;;;;;;;5260339;28;20094;-79
2023/12/17 00:06:12;;;;;;;20.90;18.90;;;;;;;;;;5259611;28;20029;-79
2023/12/17 00:08:43;;;;;;;21.50;19.30;;;;;;;;;;5260367;28;20027;-79
2023/12/17 00:11:14;;;;;;;21.52;19.30;;;;;;;;;;5259787;28;20021;-80
2023/12/17 00:13:46;;;;;;;21.20;19.13;;;;;;;;;;5260412;28;20025;-79
2023/12/17 00:16:17;;;;;;;21.70;19.60;;;;;;;;;;5260297;28;20036;-80
2023/12/17 00:18:48;;;;;;;21.52;19.38;;;;;;;;;;5259540;28;20079;-79
2023/12/17 00:21:19;;;;;;;21.55;19.55;;;;;;;;;;5260814;28;20096;-79
2023/12/17 00:23:50;;;;;;;22.63;19.48;;;;;;;;;;5264082;28;20104;-79
2023/12/17 00:26:22;;;;;;;20.67;18.55;;;;;;;;;;5262587;28;20048;-79
2023/12/17 00:28:53;;;;;;;20.85;18.75;;;;;;;;;;5264302;28;20349;-80
2023/12/17 00:31:24;;;;;;;20.60;18.67;;;;;;;;;;5263432;28;20112;-80
2023/12/17 00:33:55;;;;;;;21.98;19.67;;;;;;;;;;5263237;28;20017;-80
2023/12/17 00:36:26;;;;;;;21.45;19.30;;;;;;;;;;5263424;28;20033;-79
2023/12/17 00:38:57;;;;;;;21.83;19.63;;;;;;;;;;5263732;28;20027;-80
2023/12/17 00:41:29;;;;;;;21.05;18.67;;;;;;;;;;5262874;28;20013;-79
2023/12/17 00:44:00;;;;;;;22.20;19.90;;;;;;;;;;5263377;28;20059;-80
2023/12/17 00:46:31;;;;;;;20.48;18.52;;;;;;;;;;5262657;28;20426;-80
2023/12/17 00:49:02;;;;;;;20.83;18.73;;;;;;;;;;5263466;28;20072;-80
2023/12/17 00:51:34;;;;;;;21.83;19.52;;;;;;;;;;5263240;28;20065;-80
2023/12/17 00:54:05;;;;;;;23.35;20.85;;;;;;;;;;5262631;28;20013;-80
2023/12/17 00:56:36;;;;;;;20.92;18.80;;;;;;;;;;5263119;28;20029;-80
2023/12/17 00:59:07;;;;;;;19.60;17.70;;;;;;;;;;5263279;28;20017;-80
2023/12/17 01:01:39;;;;;;;21.66;19.56;;;;;;;;;;5262340;28;20024;-80
2023/12/17 01:04:10;;;;;;;20.80;18.70;;;;;;;;;;5263159;28;20067;-80
2023/12/17 01:06:41;;;;;;;21.98;19.77;;;;;;;;;;5262976;28;20408;-80
2023/12/17 01:09:12;;;;;;;20.65;18.45;;;;;;;;;;5262160;28;20033;-80
2023/12/17 01:11:43;;;;;;;23.17;19.02;;;;;;;;;;5263155;28;20021;-80
2023/12/17 01:14:15;;;;;;;22.35;20.05;;;;;;;;;;5262361;28;20062;-80
2023/12/17 01:16:46;;;;;;;22.48;20.00;;;;;;;;;;5262669;28;20029;-80
2023/12/17 01:19:17;;;;;;;23.13;20.65;;;;;;;;;;5262875;28;20495;-79
2023/12/17 01:21:48;;;;;;;24.52;20.15;;;;;;;;;;5261843;28;20040;-80
2023/12/17 01:24:19;;;;;;;23.30;21.00;;;;;;;;;;5262991;28;20096;-80
2023/12/17 01:26:51;;;;;;;21.20;19.00;;;;;;;;;;5262462;28;20052;-79
2023/12/17 01:29:22;;;;;;;23.92;21.42;;;;;;;;;;5261583;28;20468;-80
2023/12/17 01:31:54;;;;;;;22.42;20.05;;;;;;;;;;5262526;28;20017;-80
2023/12/17 01:34:25;;;;;;;24.08;19.65;;;;;;;;;;5262388;28;20155;-81
2023/12/17 01:36:57;;;;;;;21.67;19.42;;;;;;;;;;5261916;28;20104;-79
2023/12/17 01:39:28;;;;;;;23.00;19.50;;;;;;;;;;5262536;28;20023;-79
2023/12/17 01:41:59;;;;;;;21.58;19.12;;;;;;;;;;5262436;28;20028;-80
2023/12/17 01:44:30;;;;;;;21.10;18.80;;;;;;;;;;5262122;28;20017;-80
2023/12/17 01:47:01;;;;;;;20.60;17.70;;;;;;;;;;5262511;28;20495;-80
2023/12/17 01:49:33;;;;;;;19.35;17.35;;;;;;;;;;5261302;28;20021;-80
2023/12/17 01:52:04;;;;;;;20.17;18.15;;;;;;;;;;5262100;28;20495;-80
2023/12/17 01:54:36;;;;;;;19.58;17.50;;;;;;;;;;5262068;28;20407;-80
2023/12/17 01:57:07;;;;;;;20.88;18.67;;;;;;;;;;5261109;28;20476;-80
2023/12/17 01:59:38;;;;;;;17.98;16.08;;;;;;;;;;5262258;28;20023;-81
2023/12/17 02:02:13;;;;;;;19.77;16.48;;;;;;;;;;5262076;28;20104;-81
2023/12/17 02:04:44;;;;;;;20.42;17.70;;;;;;;;;;5261050;28;20024;-80
2023/12/17 02:07:16;;;;;;;22.23;17.73;;;;;;;;;;5261819;28;20394;-81
2023/12/17 02:09:47;;;;;;;18.90;16.23;;;;;;;;;;5261810;28;20021;-81
2023/12/17 02:12:26;;;;;;;18.50;16.65;;;;;;;;;;5261191;28;20385;-80
2023/12/17 02:14:57;;;;;;;16.85;15.10;;;;;;;;;;5261626;28;20017;-81
2023/12/17 02:17:29;;;;;;;17.55;15.52;;;;;;;;;;5261499;28;20029;-79
2023/12/17 02:20:00;;;;;;;20.52;17.13;;;;;;;;;;5260727;28;20380;-80
2023/12/17 02:22:33;;;;;;;17.98;16.08;;;;;;;;;;5261801;28;20036;-80
2023/12/17 02:25:05;;;;;;;17.98;15.45;;;;;;;;;;5260517;28;20025;-80
2023/12/17 02:27:36;;;;;;;18.15;16.00;;;;;;;;;;5261423;28;20017;-80
2023/12/17 02:30:08;;;;;;;19.52;17.50;;;;;;;;;;5261478;28;20017;-79
2023/12/17 02:32:39;;;;;;;20.20;17.95;;;;;;;;;;5260521;28;20021;-80
2023/12/17 02:35:10;;;;;;;20.15;18.05;;;;;;;;;;5261387;28;20104;-80
2023/12/17 02:37:41;;;;;;;17.90;16.08;;;;;;;;;;5261529;28;20426;-79
2023/12/17 02:40:12;;;;;;;19.90;16.80;;;;;;;;;;5260948;28;20074;-79
2023/12/17 02:42:44;;;;;;;18.00;15.90;;;;;;;;;;5261251;28;20025;-79
2023/12/17 02:45:15;;;;;;;19.25;15.60;;;;;;;;;;5260431;28;20021;-79
2023/12/17 02:47:46;;;;;;;17.90;16.00;;;;;;;;;;5260508;28;20393;-79
2023/12/17 02:50:17;;;;;;;21.13;17.42;;;;;;;;;;5261194;28;20452;-79
2023/12/17 02:52:48;;;;;;;20.25;17.10;;;;;;;;;;5260314;28;20029;-79
2023/12/17 02:55:19;;;;;;;16.92;15.20;;;;;;;;;;5260986;28;20013;-79
2023/12/17 02:57:51;;;;;;;16.86;15.02;;;;;;;;;;5261010;28;20040;-78
2023/12/17 03:00:22;;;;;;;17.20;15.40;;;;;;;;;;5259925;28;20021;-79
2023/12/17 03:02:53;;;;;;;16.85;15.15;;;;;;;;;;5260967;28;20067;-79
2023/12/17 03:05:24;;;;;;;20.90;16.52;;;;;;;;;;5260329;28;20021;-79
2023/12/17 03:07:55;;;;;;;16.58;14.77;;;;;;;;;;5260123;28;20432;-79
2023/12/17 03:10:26;;;;;;;15.15;13.55;;;;;;;;;;5260480;28;20074;-80
2023/12/17 03:12:58;;;;;;;15.46;13.82;;;;;;;;;;5260744;28;20025;-79
2023/12/17 03:15:29;;;;;;;15.72;13.40;;;;;;;;;;5260190;28;20074;-79
2023/12/17 03:18:00;;;;;;;14.25;12.85;;;;;;;;;;5260907;28;20036;-79
2023/12/17 03:20:31;;;;;;;14.05;12.05;;;;;;;;;;5260666;28;20052;-79
2023/12/17 03:23:02;;;;;;;14.40;12.98;;;;;;;;;;5260093;28;20391;-79
2023/12/17 03:25:33;;;;;;;12.52;11.32;;;;;;;;;;5260670;28;20041;-80
2023/12/17 03:28:05;;;;;;;11.70;10.50;;;;;;;;;;5260081;28;20017;-79
2023/12/17 03:30:36;;;;;;;11.82;10.63;;;;;;;;;;5260677;28;20264;-79
2023/12/17 03:33:09;;;;;;;11.43;10.00;;;;;;;;;;5260671;28;20021;-79
2023/12/17 03:35:40;;;;;;;11.40;10.15;;;;;;;;;;5259976;28;20216;-79
2023/12/17 03:38:11;;;;;;;10.73;9.73;;;;;;;;;;5260768;28;20028;-79
2023/12/17 03:40:42;;;;;;;12.60;10.68;;;;;;;;;;5260611;28;20040;-79
2023/12/17 03:43:13;;;;;;;9.85;8.95;;;;;;;;;;5259831;28;20028;-79
2023/12/17 03:45:45;;;;;;;9.27;8.43;;;;;;;;;;5260510;28;20029;-79
2023/12/17 03:48:16;;;;;;;9.25;8.45;;;;;;;;;;5260669;28;20473;-79
2023/12/17 03:50:47;;;;;;;7.93;7.15;;;;;;;;;;5259752;28;20021;-79
2023/12/17 03:53:18;;;;;;;8.50;7.55;;;;;;;;;;5260517;28;20415;-79
2023/12/17 03:55:49;;;;;;;8.85;7.28;;;;;;;;;;5261882;28;20059;-79
2023/12/17 03:58:20;;;;;;;9.05;8.18;;;;;;;;;;5263729;28;20021;-79
2023/12/17 04:00:51;;;;;;;8.35;7.07;;;;;;;;;;5264824;28;20029;-79
2023/12/17 04:03:23;;;;;;;7.75;6.95;;;;;;;;;;5263140;28;20067;-79
2023/12/17 04:05:54;;;;;;;7.40;6.60;;;;;;;;;;5264514;28;20383;-79
2023/12/17 04:08:26;;;;;;;8.23;7.43;;;;;;;;;;5263850;28;20036;-79
2023/12/17 04:10:57;;;;;;;7.13;6.53;;;;;;;;;;5263409;28;20033;-79
2023/12/17 04:13:28;;;;;;;7.95;7.15;;;;;;;;;;5264263;28;20017;-80
2023/12/17 04:15:59;;;;;;;10.45;7.22;;;;;;;;;;5264191;28;20052;-79
2023/12/17 04:18:31;;;;;;;8.20;7.40;;;;;;;;;;5263215;28;20036;-81
2023/12/17 04:21:02;;;;;;;8.50;7.65;;;;;;;;;;5263957;28;20100;-81
2023/12/17 04:23:33;;;;;;;8.25;7.45;;;;;;;;;;5264030;28;20024;-79
2023/12/17 04:26:04;;;;;;;7.82;7.03;;;;;;;;;;5262841;28;20049;-80
2023/12/17 04:28:36;;;;;;;9.20;8.15;;;;;;;;;;5263890;28;20420;-80
2023/12/17 04:31:07;;;;;;;7.57;6.80;;;;;;;;;;5263750;28;20057;-80
2023/12/17 04:33:38;;;;;;;8.78;7.90;;;;;;;;;;5263203;28;20127;-80
2023/12/17 04:36:09;;;;;;;8.77;7.85;;;;;;;;;;5263495;28;20119;-80
2023/12/17 04:38:41;;;;;;;9.40;8.50;;;;;;;;;;5262928;28;20370;-80
2023/12/17 04:41:13;;;;;;;9.05;8.15;;;;;;;;;;5263861;28;20059;-79
2023/12/17 04:43:44;;;;;;;8.50;7.70;;;;;;;;;;5263510;28;20029;-80
2023/12/17 04:46:15;;;;;;;9.82;8.23;;;;;;;;;;5262982;28;20216;-80
2023/12/17 04:48:46;;;;;;;9.98;8.70;;;;;;;;;;5263560;28;20047;-81
2023/12/17 04:51:17;;;;;;;8.85;8.00;;;;;;;;;;5263291;28;20049;-81
2023/12/17 04:53:49;;;;;;;9.70;7.88;;;;;;;;;;5262568;28;20534;-81
2023/12/17 04:56:21;;;;;;;10.63;9.02;;;;;;;;;;5263096;28;20388;-81
2023/12/17 04:58:52;;;;;;;10.30;8.95;;;;;;;;;;5263388;28;20017;-80
2023/12/17 05:01:23;;;;;;;10.07;8.45;;;;;;;;;;5262184;28;20403;-79
2023/12/17 05:03:54;;;;;;;9.05;8.15;;;;;;;;;;5263460;28;20095;-80
2023/12/17 05:06:25;;;;;;;9.80;8.50;;;;;;;;;;5261861;28;20040;-79
2023/12/17 05:08:56;;;;;;;11.48;9.22;;;;;;;;;;5262707;28;20044;-80
2023/12/17 05:11:28;;;;;;;10.55;9.45;;;;;;;;;;5263108;28;20017;-80
2023/12/17 05:13:59;;;;;;;9.98;8.94;;;;;;;;;;5262319;28;20024;-79
2023/12/17 05:16:30;;;;;;;11.02;9.15;;;;;;;;;;5262814;28;20063;-80
2023/12/17 05:19:01;;;;;;;9.48;8.48;;;;;;;;;;5262859;28;20395;-80
2023/12/17 05:21:32;;;;;;;11.73;10.20;;;;;;;;;;5262028;28;20108;-79
2023/12/17 05:24:04;;;;;;;11.50;10.05;;;;;;;;;;5262920;28;20029;-80
2023/12/17 05:26:35;;;;;;;11.20;10.07;;;;;;;;;;5262593;28;20091;-80
2023/12/17 05:29:06;;;;;;;11.70;9.95;;;;;;;;;;5261875;28;20459;-81
2023/12/17 05:31:37;;;;;;;11.85;10.52;;;;;;;;;;5262549;28;20377;-81
2023/12/17 05:34:11;;;;;;;10.10;9.10;;;;;;;;;;5262887;28;20041;-81
2023/12/17 05:36:42;;;;;;;12.30;10.10;;;;;;;;;;5261804;28;20079;-81
2023/12/17 05:39:13;;;;;;;11.00;9.90;;;;;;;;;;5262500;28;20013;-80
2023/12/17 05:41:45;;;;;;;10.52;9.38;;;;;;;;;;5261553;28;20020;-80
2023/12/17 05:44:16;;;;;;;12.05;10.30;;;;;;;;;;5262267;28;20463;-80
2023/12/17 05:46:47;;;;;;;11.23;9.82;;;;;;;;;;5262610;28;20023;-79
2023/12/17 05:49:18;;;;;;;10.23;9.18;;;;;;;;;;5261667;28;20017;-79
2023/12/17 05:51:50;;;;;;;10.70;9.07;;;;;;;;;;5262188;28;20070;-81
2023/12/17 05:54:21;;;;;;;9.77;8.48;;;;;;;;;;5261769;28;20017;-78
2023/12/17 05:56:52;;;;;;;10.38;9.18;;;;;;;;;;5261809;28;20033;-80
2023/12/17 05:59:23;;;;;;;10.32;8.65;;;;;;;;;;5261831;28;20058;-80
2023/12/17 06:01:55;;;;;;;9.68;8.45;;;;;;;;;;5262576;28;20472;-80
2023/12/17 06:04:26;;;;;;;8.98;7.75;;;;;;;;;;5261007;28;20013;-80
2023/12/17 06:06:58;;;;;;;7.75;6.88;;;;;;;;;;5261938;28;20044;-80
2023/12/17 06:09:30;;;;;;;7.53;6.82;;;;;;;;;;5262062;28;20070;-79
2023/12/17 06:12:01;;;;;;;8.10;6.88;;;;;;;;;;5261143;28;20013;-80
2023/12/17 06:14:32;;;;;;;6.75;6.13;;;;;;;;;;5261917;28;20051;-80
2023/12/17 06:17:05;;;;;;;6.30;5.63;;;;;;;;;;5260875;28;20037;-80
2023/12/17 06:19:36;;;;;;;7.15;5.93;;;;;;;;;;5260735;28;20125;-80
2023/12/17 06:22:11;;;;;;;5.55;5.05;;;;;;;;;;5261821;28;20100;-80
2023/12/17 06:24:42;;;;;;;6.78;6.07;;;;;;;;;;5260672;28;20048;-79
2023/12/17 06:27:15;;;;;;;6.18;5.57;;;;;;;;;;5261682;28;20064;-84
2023/12/17 06:29:48;;;;;;;7.03;5.10;;;;;;;;;;5261516;28;20017;-84
2023/12/17 06:32:20;;;;;;;5.13;4.63;;;;;;;;;;5260950;28;20020;-84
2023/12/17 06:34:51;;;;;;;7.60;5.60;;;;;;;;;;5261444;28;20028;-84
2023/12/17 06:37:22;;;;;;;4.97;4.47;;;;;;;;;;5261037;28;20448;-85
2023/12/17 06:39:53;;;;;;;5.80;5.20;;;;;;;;;;5260942;28;20070;-85
2023/12/17 06:42:24;;;;;;;6.13;4.63;;;;;;;;;;5260867;28;20020;-85
2023/12/17 06:44:56;;;;;;;5.47;4.97;;;;;;;;;;5261040;28;20479;-85
2023/12/17 06:47:27;;;;;;;6.43;4.72;;;;;;;;;;5261171;28;20021;-81
2023/12/17 06:49:58;;;;;;;4.72;4.32;;;;;;;;;;5261338;28;20073;-85
2023/12/17 06:52:29;;;;;;;6.78;5.80;;;;;;;;;;5260460;28;20036;-84
2023/12/17 06:55:00;;;;;;;7.47;6.68;;;;;;;;;;5260964;28;20147;-85
2023/12/17 06:57:31;;;;;;;8.23;7.40;;;;;;;;;;5260894;28;20468;-84
2023/12/17 07:00:03;;;;;;;9.50;7.43;;;;;;;;;;5260370;28;20048;-86
2023/12/17 07:02:34;;;;;;;8.55;7.63;;;;;;;;;;5261168;28;20044;-85
2023/12/17 07:05:05;;;;;;;8.57;7.78;;;;;;;;;;5260968;28;20039;-85
2023/12/17 07:07:37;;;;;;;8.70;7.80;;;;;;;;;;5260065;28;20051;-84
2023/12/17 07:10:08;;;;;;;9.43;8.52;;;;;;;;;;5260939;28;20025;-85
2023/12/17 07:12:39;;;;;;;8.80;7.90;;;;;;;;;;5261137;28;20845;-84
2023/12/17 07:15:10;;;;;;;7.60;6.90;;;;;;;;;;5260404;28;20024;-83
2023/12/17 07:17:42;;;;;;;8.30;6.70;;;;;;;;;;5260866;28;20032;-83
2023/12/17 07:20:13;;;;;;;7.82;7.03;;;;;;;;;;5259982;28;20519;-80
2023/12/17 07:22:44;;;;;;;7.40;6.32;;;;;;;;;;5260753;28;20052;-80
2023/12/17 07:25:16;;;;;;;7.38;6.57;;;;;;;;;;5260661;28;20484;-86
2023/12/17 07:27:47;;;;;;;6.63;6.03;;;;;;;;;;5260030;28;20025;-85
2023/12/17 07:30:18;;;;;;;7.38;6.68;;;;;;;;;;5261517;28;20017;-86
2023/12/17 07:32:49;;;;;;;8.93;7.53;;;;;;;;;;5265357;28;20088;-85
2023/12/17 07:35:20;;;;;;;7.97;7.18;;;;;;;;;;5264162;28;20082;-85
2023/12/17 07:37:52;;;;;;;8.32;7.35;;;;;;;;;;5265221;28;20361;-86
2023/12/17 07:40:23;;;;;;;10.30;8.10;;;;;;;;;;5264623;28;20111;-85
2023/12/17 07:42:54;;;;;;;10.25;8.13;;;;;;;;;;5264359;28;20037;-85
2023/12/17 07:45:25;;;;;;;8.88;7.97;;;;;;;;;;5264344;28;20021;-85
2023/12/17 07:47:56;;;;;;;8.38;7.57;;;;;;;;;;5264718;28;20029;-85
2023/12/17 07:50:27;;;;;;;8.20;7.35;;;;;;;;;;5263788;28;20486;-87
2023/12/17 07:53:00;;;;;;;7.38;6.68;;;;;;;;;;5264586;28;20456;-85
2023/12/17 07:55:31;;;;;;;8.27;7.38;;;;;;;;;;5263436;28;20044;-85
2023/12/17 07:58:02;;;;;;;8.20;7.35;;;;;;;;;;5264902;28;20071;-85
2023/12/17 08:00:33;;;;;;;6.82;6.05;;;;;;;;;;5263808;28;20037;-84
2023/12/17 08:03:04;;;;;;;7.22;6.53;;;;;;;;;;5263762;28;20025;-84
2023/12/17 08:05:35;;;;;;;6.78;6.07;;;;;;;;;;5264694;28;20099;-85
2023/12/17 08:08:06;;;;;;;6.43;5.25;;;;;;;;;;5264722;28;20082;-84
2023/12/17 08:10:38;;;;;;;6.30;5.55;;;;;;;;;;5263526;28;20115;-86
2023/12/17 08:13:10;;;;;;;5.75;5.22;;;;;;;;;;5264181;28;20472;-86
2023/12/17 08:15:41;;;;;;;6.22;5.70;;;;;;;;;;5263946;28;20508;-84
2023/12/17 08:18:12;;;;;;;6.03;5.45;;;;;;;;;;5263351;28;20082;-86
2023/12/17 08:20:43;;;;;;;5.85;5.35;;;;;;;;;;5264172;28;20013;-86
2023/12/17 08:23:14;;;;;;;5.93;5.18;;;;;;;;;;5263931;28;20116;-86
2023/12/17 08:25:45;;;;;;;6.60;5.50;;;;;;;;;;5263217;28;20052;-87
2023/12/17 08:28:19;;;;;;;6.45;5.75;;;;;;;;;;5263964;28;20025;-88
2023/12/17 08:30:50;;;;;;;8.10;6.53;;;;;;;;;;5263059;28;20415;-87
2023/12/17 08:33:21;;;;;;;6.90;6.30;;;;;;;;;;5263721;28;20036;-86
2023/12/17 08:35:53;;;;;;;6.40;5.80;;;;;;;;;;5264025;28;20033;-86
2023/12/17 08:38:24;;;;;;;8.07;7.00;;;;;;;;;;5262742;28;20472;-86
2023/12/17 08:40:55;;;;;;;7.10;6.40;;;;;;;;;;5264068;28;20021;-85
2023/12/17 08:43:26;;;;;;;6.97;5.93;;;;;;;;;;5262078;28;20115;-85
2023/12/17 08:45:57;;;;;;;7.22;6.53;;;;;;;;;;5262895;28;20040;-84
2023/12/17 08:48:29;;;;;;;7.72;6.93;;;;;;;;;;5263770;28;20025;-85
2023/12/17 08:51:00;;;;;;;7.65;6.85;;;;;;;;;;5263439;28;20021;-85
2023/12/17 08:53:31;;;;;;;7.50;6.78;;;;;;;;;;5263063;28;20415;-85
2023/12/17 08:56:03;;;;;;;7.93;7.13;;;;;;;;;;5263444;28;20033;-85
2023/12/17 08:58:34;;;;;;;7.28;6.57;;;;;;;;;;5262668;28;20021;-84
2023/12/17 09:01:05;;;;;;;7.43;6.70;;;;;;;;;;5263714;28;20071;-85
2023/12/17 09:03:36;;;;;;;8.63;7.68;;;;;;;;;;5263138;28;20162;-86
2023/12/17 09:06:08;;;;;;;7.93;7.13;;;;;;;;;;5262227;28;20536;-85
2023/12/17 09:08:39;;;;;;;7.90;7.20;;;;;;;;;;5266000;28;20013;-86
2023/12/17 09:11:11;;;;;;;8.63;7.75;;;;;;;;;;5263040;28;20033;-85
2023/12/17 09:13:43;;;;;;;10.07;8.98;;;;;;;;;;5262273;28;20082;-85
2023/12/17 09:16:14;;;;;;;11.15;8.85;;;;;;;;;;5262948;28;20120;-87
2023/12/17 09:18:47;;;;;;;9.10;8.10;;;;;;;;;;5263057;28;20036;-87
2023/12/17 09:21:18;;;;;;;9.90;8.07;;;;;;;;;;5262512;28;20024;-85
2023/12/17 09:23:49;;;;;;;10.75;8.80;;;;;;;;;;5263148;28;20021;-85
2023/12/17 09:26:20;;;;;;;10.65;9.27;;;;;;;;;;5263131;28;20098;-85
2023/12/17 09:28:52;;;;;;;11.07;9.90;;;;;;;;;;5263228;28;20422;-85
2023/12/17 09:31:23;;;;;;;10.18;8.88;;;;;;;;;;5262475;28;20021;-87
2023/12/17 09:33:54;;;;;;;11.68;9.73;;;;;;;;;;5262285;28;20343;-85
2023/12/17 09:36:27;;;;;;;10.68;8.82;;;;;;;;;;5263286;28;20151;-85
2023/12/17 09:38:58;;;;;;;14.18;10.05;;;;;;;;;;5262982;28;20021;-86
2023/12/17 09:41:29;;;;;;;13.95;10.10;;;;;;;;;;5262601;28;20021;-86
2023/12/17 09:44:02;;;;;;;13.95;10.63;;;;;;;;;;5262935;28;20020;-86
2023/12/17 09:46:35;;;;;;;14.57;10.57;;;;;;;;;;5263349;28;20025;-84
2023/12/17 09:49:06;;;;;;;11.40;9.02;;;;;;;;;;5261904;28;20461;-86
2023/12/17 09:51:41;;;;;;;12.30;9.93;;;;;;;;;;5262538;28;20017;-85
2023/12/17 09:54:12;;;;;;;12.40;10.07;;;;;;;;;;5262509;28;20325;-85
2023/12/17 09:56:47;;;;;;;12.73;10.98;;;;;;;;;;5262700;28;20025;-86
2023/12/17 09:59:19;;;;;;;14.95;11.02;;;;;;;;;;5262166;28;20083;-85
2023/12/17 10:01:54;;;;;;;13.07;11.10;;;;;;;;;;5261577;28;20044;-86
2023/12/17 10:04:25;;;;;;;15.02;10.60;;;;;;;;;;5261806;28;20464;-76
2023/12/17 10:06:56;;;;;;;13.05;10.35;;;;;;;;;;5262045;28;20021;-83
2023/12/17 10:09:27;;;;;;;14.20;10.82;;;;;;;;;;5261562;28;20468;-85
2023/12/17 10:11:58;;;;;;;15.60;11.13;;;;;;;;;;5262055;28;20048;-85
2023/12/17 10:14:30;;;;;;;15.07;11.23;;;;;;;;;;5261830;28;20456;-85
2023/12/17 10:17:02;;;;;;;14.88;11.13;;;;;;;;;;5261066;28;20356;-85
2023/12/17 10:19:33;;;;;;;15.68;11.38;;;;;;;;;;5261699;28;20024;-85
2023/12/17 10:22:07;;;;;;;16.20;11.50;;;;;;;;;;5261797;28;20029;-85
2023/12/17 10:24:38;;;;;;;18.70;11.77;;;;;;;;;;5261239;28;20017;-85
2023/12/17 10:27:14;;;;;;;17.35;12.70;;;;;;;;;;5261746;28;20037;-85
2023/12/17 10:29:52;;;;;;;17.27;12.80;;;;;;;;;;5261848;28;20060;-85
2023/12/17 10:32:24;;;;;;;20.95;14.73;;;;;;;;;;5261445;28;20017;-85
2023/12/17 10:34:56;;;;;;;22.00;15.18;;;;;;;;;;5262062;28;20024;-85
2023/12/17 10:37:27;;;;;;;22.52;15.38;;;;;;;;;;5260504;28;20036;-85
2023/12/17 10:39:59;;;;;;;23.67;16.02;;;;;;;;;;5261557;28;20043;-86
2023/12/17 10:42:32;;;;;;;19.90;14.93;;;;;;;;;;5261758;28;20013;-84
2023/12/17 10:45:05;;;;;;;20.13;14.35;;;;;;;;;;5260687;28;20009;-85
2023/12/17 10:47:36;;;;;;;22.02;14.32;;;;;;;;;;5261222;28;20104;-84
2023/12/17 10:50:08;;;;;;;22.73;15.13;;;;;;;;;;5261198;28;20108;-85
2023/12/17 10:52:40;;;;;;;20.85;14.50;;;;;;;;;;5260364;28;20029;-85
2023/12/17 10:55:11;;;;;;;20.30;14.30;;;;;;;;;;5260965;28;20029;-84
2023/12/17 10:57:45;;;;;;;22.17;14.45;;;;;;;;;;5261419;28;20511;-84
2023/12/17 11:00:19;;;;;;;19.83;13.70;;;;;;;;;;5260943;28;20021;-84
2023/12/17 11:02:51;;;;;;;20.48;14.70;;;;;;;;;;5261626;28;20147;-86
2023/12/17 11:05:22;;;;;;;24.80;14.93;;;;;;;;;;5259203;28;20086;-84
2023/12/17 11:07:54;;;;;;;18.92;12.35;;;;;;;;;;5261408;28;20013;-84
2023/12/17 11:10:25;;;;;;;21.38;14.35;;;;;;;;;;5260765;28;20029;-84
2023/12/17 11:12:57;;;;;;;18.67;12.63;;;;;;;;;;5260135;28;20005;-84
2023/12/17 11:15:28;;;;;;;19.00;12.30;;;;;;;;;;5260745;28;20017;-83
2023/12/17 11:18:00;;;;;;;18.08;12.25;;;;;;;;;;5260967;28;20025;-84
2023/12/17 11:20:34;;;;;;;21.85;12.00;;;;;;;;;;5260022;28;20013;-84
2023/12/17 11:23:06;;;;;;;17.73;11.73;;;;;;;;;;5260851;28;20391;-84
2023/12/17 11:25:39;;;;;;;22.10;11.63;;;;;;;;;;5260372;28;20048;-84
2023/12/17 11:28:18;;;;;;;19.73;10.15;;;;;;;;;;5260169;28;20037;-84
2023/12/17 11:30:49;;;;;;;16.50;9.88;;;;;;;;;;5260771;28;20021;-85
2023/12/17 11:33:21;;;;;;;19.42;11.13;;;;;;;;;;5259947;28;20025;-85
2023/12/17 11:35:52;;;;;;;17.55;11.20;;;;;;;;;;5260926;28;20021;-84
2023/12/17 11:38:25;;;;;;;19.60;11.27;;;;;;;;;;5260378;28;20029;-84
2023/12/17 11:40:56;;;;;;;17.92;9.43;;;;;;;;;;5260125;28;20025;-84
2023/12/17 11:43:27;;;;;;;18.38;11.02;;;;;;;;;;5260433;28;20095;-77
2023/12/17 11:45:58;;;;;;;18.20;10.93;;;;;;;;;;5260312;28;20021;-82
2023/12/17 11:48:31;;;;;;;20.65;10.20;;;;;;;;;;5260002;28;20394;-83
2023/12/17 11:51:03;;;;;;;18.95;11.30;;;;;;;;;;5260434;28;20499;-84
2023/12/17 11:53:40;;;;;;;18.70;11.07;;;;;;;;;;5260591;28;20025;-81
2023/12/17 11:56:11;;;;;;;20.40;11.10;;;;;;;;;;5259837;28;20028;-81
2023/12/17 11:58:47;;;;;;;24.02;11.20;;;;;;;;;;5261094;28;20025;-83
2023/12/17 12:01:18;;;;;;;16.25;9.80;;;;;;;;;;5259990;28;20427;-83
2023/12/17 12:03:55;;;;;;;16.13;9.27;;;;;;;;;;5260554;28;20037;-83
2023/12/17 12:06:26;;;;;;;20.15;9.45;;;;;;;;;;5260379;28;20028;-81
2023/12/17 12:08:59;;;;;;;19.13;9.05;;;;;;;;;;5260950;28;20029;-83
2023/12/17 12:11:33;;;;;;;19.27;8.38;;;;;;;;;;5260168;28;20104;-83
2023/12/17 12:14:05;;;;;;;16.90;7.65;;;;;;;;;;5260437;28;20353;-85
2023/12/17 12:16:39;;;;;;;16.75;6.93;;;;;;;;;;5260484;28;20044;-84
2023/12/17 12:19:10;;;;;;;12.63;6.28;;;;;;;;;;5264436;28;20025;-83
2023/12/17 12:21:42;;;;;;;14.95;7.25;;;;;;;;;;5264081;28;20036;-83
2023/12/17 12:24:17;;;;;;;17.13;6.57;;;;;;;;;;5263056;28;20033;-83
2023/12/17 12:26:49;;;;;;;14.55;5.95;;;;;;;;;;5263716;28;20407;-83
2023/12/17 12:29:20;;;;;;;17.30;6.88;;;;;;;;;;5263773;28;20522;-84
2023/12/17 12:31:54;;;;;;;17.17;6.20;;;;;;;;;;5263156;28;20025;-84
2023/12/17 12:34:32;;;;;;;12.32;5.35;;;;;;;;;;5262935;28;20107;-85
2023/12/17 12:37:03;;;;;;;14.15;6.22;;;;;;;;;;5263116;28;20037;-83
2023/12/17 12:39:44;;;;;;;17.58;5.32;;;;;;;;;;5263689;28;20527;-83
2023/12/17 12:42:18;;;;;;;17.80;5.85;;;;;;;;;;5263629;28;20519;-84
2023/12/17 12:44:49;;;;;;;15.48;5.10;;;;;;;;;;5262553;28;20036;-84
2023/12/17 12:47:22;;;;;;;17.30;5.30;;;;;;;;;;5263724;28;20464;-84
2023/12/17 12:49:53;;;;;;;9.35;4.63;;;;;;;;;;5264046;28;20471;-84
2023/12/17 12:52:24;;;;;;;15.68;4.60;;;;;;;;;;5262491;28;20040;-84
2023/12/17 12:54:55;;;;;;;14.02;4.40;;;;;;;;;;5263779;28;20096;-85
2023/12/17 12:57:26;;;;;;;16.00;5.10;;;;;;;;;;5264424;28;20087;-84
2023/12/17 12:59:58;;;;;;;10.32;3.90;;;;;;;;;;5262956;28;20483;-84
2023/12/17 13:02:32;;;;;;;11.88;3.67;;;;;;;;;;5263418;28;20533;-83
2023/12/17 13:05:04;;;;;;;14.90;4.63;;;;;;;;;;5262465;28;20025;-84
2023/12/17 13:07:38;;;;;;;14.82;4.25;;;;;;;;;;5263330;28;20021;-84
2023/12/17 13:10:09;;;;;;;13.07;4.60;;;;;;;;;;5263360;28;20490;-84
2023/12/17 13:12:41;;;;;;;8.95;3.13;;;;;;;;;;5262791;28;20032;-86
2023/12/17 13:15:13;;;;;;;14.23;4.97;;;;;;;;;;5263377;28;20421;-85
2023/12/17 13:17:44;;;;;;;12.35;5.03;;;;;;;;;;5263021;28;20037;-80
2023/12/17 13:20:15;;;;;;;15.18;4.20;;;;;;;;;;5262267;28;20118;-82
2023/12/17 13:22:46;;;;;;;15.35;4.85;;;;;;;;;;5263396;28;20128;-86
2023/12/17 13:25:18;;;;;;;15.60;4.45;;;;;;;;;;5262490;28;20033;-86
2023/12/17 13:27:51;;;;;;;12.85;3.92;;;;;;;;;;5262097;28;20021;-84
2023/12/17 13:30:25;;;;;;;15.15;3.80;;;;;;;;;;5262638;28;20412;-85
2023/12/17 13:33:02;;;;;;;13.52;2.67;;;;;;;;;;5262386;28;20024;-84
2023/12/17 13:35:33;;;;;;;10.05;3.13;;;;;;;;;;5262896;28;20045;-86
2023/12/17 13:38:04;;;;;;;9.75;3.33;;;;;;;;;;5262900;28;20052;-86
2023/12/17 13:40:35;;;;;;;12.20;2.65;;;;;;;;;;5262286;28;20025;-85
2023/12/17 13:43:07;;;;;;;14.45;3.00;;;;;;;;;;5262692;28;20025;-86
2023/12/17 13:45:38;;;;;;;12.25;2.50;;;;;;;;;;5263053;28;20029;-86
2023/12/17 13:48:12;;;;;;;10.32;2.60;;;;;;;;;;5262436;28;20028;-85
2023/12/17 13:50:44;;;;;;;14.75;2.60;;;;;;;;;;5262751;28;20396;-87
2023/12/17 13:53:18;;;;;;;10.27;2.55;;;;;;;;;;5262412;28;20021;-86
2023/12/17 13:55:50;;;;;;;10.68;2.42;;;;;;;;;;5261765;28;20021;-85
2023/12/17 13:58:21;;;;;;;9.72;2.54;;;;;;;;;;5262365;28;20029;-87
2023/12/17 14:00:53;;;;;;;11.63;2.97;;;;;;;;;;5262039;28;20119;-86
2023/12/17 14:03:26;;;;;;;8.80;2.20;;;;;;;;;;5261460;28;20029;-81
2023/12/17 14:05:57;;;;;;;9.70;2.58;;;;;;;;;;5262003;28;20021;-82
2023/12/17 14:08:28;;;;;;;11.23;3.00;;;;;;;;;;5261076;28;20039;-84
2023/12/17 14:10:59;;;;;;;9.07;1.88;;;;;;;;;;5262016;28;20013;-84
2023/12/17 14:13:31;;;;;;;9.40;2.05;;;;;;;;;;5262061;28;20492;-83
2023/12/17 14:16:02;;;;;;;10.07;2.45;;;;;;;;;;5261367;28;20115;-82
2023/12/17 14:18:33;;;;;;;8.50;2.10;;;;;;;;;;5261683;28;20076;-83
2023/12/17 14:21:05;;;;;;;7.80;2.30;;;;;;;;;;5261787;28;20025;-82
2023/12/17 14:23:37;;;;;;;11.48;2.78;;;;;;;;;;5260706;28;20024;-82
2023/12/17 14:26:08;;;;;;;9.20;2.38;;;;;;;;;;5258154;28;20116;-83
2023/12/17 14:28:39;;;;;;;9.63;1.88;;;;;;;;;;5244190;28;20033;-82
2023/12/17 14:31:13;;;;;;;11.93;2.22;;;;;;;;;;5239968;28;20017;-82
2023/12/17 14:33:44;;;;;;;6.25;2.08;;;;;;;;;;5240767;28;20104;-82
2023/12/17 14:36:17;;;;;;;9.82;2.33;;;;;;;;;;5239986;28;20499;-82
2023/12/17 14:38:48;;;;;;;7.57;2.10;;;;;;;;;;5240526;28;20372;-82
2023/12/17 14:41:20;;;;;;;8.63;2.17;;;;;;;;;;5239793;28;20025;-81
2023/12/17 14:43:51;;;;;;;12.38;2.83;;;;;;;;;;5239775;28;20063;-82
2023/12/17 14:46:22;;;;;;;11.50;2.40;;;;;;;;;;5240356;28;20028;-82
2023/12/17 14:48:53;;;;;;;11.88;2.78;;;;;;;;;;5240973;28;20018;-83
2023/12/17 14:51:24;;;;;;;11.15;2.50;;;;;;;;;;5239810;28;20033;-83
2023/12/17 14:53:56;;;;;;;8.65;2.28;;;;;;;;;;5241096;28;20105;-80